Time;durP1;ratioP1;P1;durP2;ratioP2;P2;SDS_P1;SDS_P2;PMS_P1;PMS_P2;Temp;Humidity;BMP_temperature;BMP_pressure;BME280_temperature;BME280_humidity;BME280_pressure;Samples;Min_cycle;Max_cycle;Signal;HPM_P1;HPM_P2
2022/07/30 00:00:57;;;;;;;14.18;8.85;;;12.40;1.00;;;;;;5055862;28;20045;-27
2022/07/30 00:03:23;;;;;;;13.68;11.20;;;12.40;1.00;;;;;;5059081;28;20032;-27
2022/07/30 00:05:49;;;;;;;8.63;7.65;;;12.40;1.00;;;;;;5054411;28;20415;-27
2022/07/30 00:08:15;;;;;;;4.60;4.20;;;12.30;2.10;;;;;;5059189;28;20159;-27
2022/07/30 00:10:40;;;;;;;3.03;2.75;;;12.30;2.00;;;;;;5056139;28;20053;-27
2022/07/30 00:13:07;;;;;;;15.85;7.32;;;12.20;1.00;;;;;;5055534;28;20040;-27
2022/07/30 00:15:33;;;;;;;8.23;6.50;;;12.10;1.60;;;;;;5055104;28;20041;-27
2022/07/30 00:17:58;;;;;;;5.68;5.18;;;12.10;68.60;;;;;;5059107;28;20045;-27
2022/07/30 00:20:24;;;;;;;4.85;4.18;;;12.10;26.80;;;;;;5053145;28;20045;-27
2022/07/30 00:22:50;;;;;;;5.45;4.72;;;12.00;8.50;;;;;;5054249;28;20037;-27
2022/07/30 00:25:17;;;;;;;483.77;18.00;;;11.90;1.00;;;;;;5055430;28;20548;-27
2022/07/30 00:27:44;;;;;;;292.63;14.75;;;11.80;18.50;;;;;;5054683;28;20072;-27
2022/07/30 00:30:10;;;;;;;9.05;8.13;;;11.70;29.80;;;;;;5035503;28;20042;-27
2022/07/30 00:32:36;;;;;;;9.07;8.18;;;11.70;58.30;;;;;;5051303;28;20048;-27
2022/07/30 00:35:02;;;;;;;290.15;16.02;;;11.50;75.00;;;;;;5057170;28;20044;-27
2022/07/30 00:37:28;;;;;;;28.80;11.48;;;11.60;99.90;;;;;;5055519;28;20558;-26
2022/07/30 00:39:54;;;;;;;37.17;12.70;;;11.60;99.90;;;;;;5053600;28;20163;-26
2022/07/30 00:42:24;;;;;;;69.07;15.60;;;11.60;99.90;;;;;;5055782;28;20471;-27
2022/07/30 00:44:53;;;;;;;202.73;28.75;;;11.70;99.90;;;;;;5055815;28;20053;-26
2022/07/30 00:47:19;;;;;;;79.00;16.65;;;11.60;99.90;;;;;;5053842;28;20045;-26
2022/07/30 00:49:45;;;;;;;14.25;12.43;;;11.60;99.90;;;;;;5057838;28;20051;-27
2022/07/30 00:52:11;;;;;;;24.20;16.20;;;11.60;99.90;;;;;;5053980;28;20094;-27
2022/07/30 00:54:37;;;;;;;45.22;16.55;;;11.60;99.90;;;;;;5053727;28;20419;-26
2022/07/30 00:57:03;;;;;;;27.30;11.50;;;11.70;99.90;;;;;;5044975;28;20045;-27
2022/07/30 00:59:30;;;;;;;10.13;9.13;;;11.70;99.90;;;;;;5050586;28;20129;-27
2022/07/30 01:01:56;;;;;;;7.97;7.07;;;11.70;99.90;;;;;;5055145;28;20399;-26
2022/07/30 01:04:22;;;;;;;9.40;7.93;;;11.70;99.90;;;;;;5055321;28;20049;-27
2022/07/30 01:06:47;;;;;;;63.72;20.48;;;11.70;99.90;;;;;;5059484;28;20069;-27
2022/07/30 01:09:13;;;;;;;17.17;13.05;;;11.70;99.90;;;;;;5056893;28;20052;-26
2022/07/30 01:11:41;;;;;;;934.67;40.58;;;11.60;99.90;;;;;;5053454;28;20391;-26
2022/07/30 01:14:08;;;;;;;755.67;30.23;;;11.70;99.90;;;;;;5055230;28;20044;-27
2022/07/30 01:16:40;;;;;;;88.68;8.48;;;11.50;99.90;;;;;;5055349;28;20483;-26
2022/07/30 01:22:09;;;;;;;362.55;17.05;;;11.20;99.90;;;;;;5053918;28;20497;-26
2022/07/30 01:24:42;;;;;;;7.60;5.97;;;11.20;1.00;;;;;;5053567;28;20539;-29
2022/07/30 01:27:10;;;;;;;7.40;5.82;;;11.10;1.00;;;;;;5054110;28;20641;-28
2022/07/30 01:29:38;;;;;;;6.55;5.03;;;11.10;1.00;;;;;;5053397;28;20052;-29
2022/07/30 01:32:06;;;;;;;10.07;8.77;;;11.10;1.00;;;;;;5052976;28;20087;-28
2022/07/30 01:34:35;;;;;;;11.95;10.20;;;11.20;1.00;;;;;;5053961;28;20695;-28
2022/07/30 01:37:02;;;;;;;11.95;8.63;;;11.00;1.00;;;;;;5056216;28;20040;-28
2022/07/30 01:39:29;;;;;;;17.35;10.25;;;11.20;1.00;;;;;;5054180;28;20120;-28
2022/07/30 01:41:56;;;;;;;12.40;10.27;;;11.20;1.00;;;;;;5056003;28;20508;-28
2022/07/30 01:44:25;;;;;;;10.30;8.52;;;11.20;1.00;;;;;;5054207;28;20055;-28
2022/07/30 01:46:53;;;;;;;17.05;13.02;;;11.20;1.00;;;;;;5053859;28;20053;-28
2022/07/30 01:49:21;;;;;;;19.92;15.70;;;11.30;1.00;;;;;;5054061;28;20049;-28
2022/07/30 01:51:48;;;;;;;15.40;12.18;;;11.30;1.00;;;;;;5056594;28;20051;-28
2022/07/30 01:54:17;;;;;;;21.30;9.75;;;11.40;1.00;;;;;;5053691;28;20043;-29
2022/07/30 01:56:46;;;;;;;983.03;38.75;;;11.30;1.00;;;;;;5054393;28;20110;-28
2022/07/30 01:59:15;;;;;;;603.72;25.73;;;11.10;1.00;;;;;;5054162;28;20110;-28
2022/07/30 02:01:41;;;;;;;37.15;12.48;;;10.90;1.00;;;;;;5053111;28;20125;-28
2022/07/30 02:04:06;;;;;;;602.97;56.75;;;10.70;1.00;;;;;;5033668;28;20128;-29
2022/07/30 02:06:37;;;;;;;260.95;44.15;;;10.70;1.00;;;;;;5053497;28;20087;-28
2022/07/30 02:09:06;;;;;;;215.60;28.88;;;10.80;4.60;;;;;;5056922;28;20061;-28
2022/07/30 02:14:29;;;;;;;49.92;13.73;;;10.70;99.90;;;;;;5054086;28;20471;-28
2022/07/30 02:16:57;;;;;;;317.20;28.27;;;10.50;99.90;;;;;;5053403;28;20051;-28
2022/07/30 02:19:28;;;;;;;550.75;46.17;;;10.40;94.60;;;;;;5052888;28;20040;-29
2022/07/30 02:22:04;;;;;;;226.43;33.45;;;10.40;99.90;;;;;;5052649;28;20086;-28
2022/07/30 02:24:32;;;;;;;18.88;16.42;;;10.60;99.90;;;;;;5056088;28;20048;-27
2022/07/30 02:27:03;;;;;;;28.27;20.33;;;10.60;99.90;;;;;;5051903;28;20558;-28
2022/07/30 02:29:32;;;;;;;25.67;21.92;;;10.60;99.90;;;;;;5053241;28;20115;-28
2022/07/30 02:32:00;;;;;;;22.10;18.83;;;10.80;99.90;;;;;;5050703;28;20487;-28
2022/07/30 02:34:28;;;;;;;30.45;23.80;;;10.90;99.90;;;;;;5053202;28;20036;-28
2022/07/30 02:36:55;;;;;;;16.45;14.75;;;10.90;99.90;;;;;;5053719;28;20049;-28
2022/07/30 02:39:21;;;;;;;110.55;25.10;;;10.80;99.90;;;;;;5068346;28;20048;-29
2022/07/30 02:41:49;;;;;;;512.42;77.90;;;10.80;99.90;;;;;;5053829;28;20085;-28
2022/07/30 02:44:17;;;;;;;166.75;37.92;;;10.90;99.90;;;;;;5052637;28;20037;-27
2022/07/30 02:46:45;;;;;;;13.65;12.35;;;10.70;99.90;;;;;;5052866;28;20048;-28
2022/07/30 02:49:14;;;;;;;108.80;30.60;;;10.70;99.90;;;;;;5054428;28;20044;-28
2022/07/30 02:51:40;;;;;;;128.80;17.88;;;10.70;99.90;;;;;;5052817;28;20049;-28
2022/07/30 02:54:06;;;;;;;268.33;17.33;;;10.60;99.90;;;;;;5053529;28;20124;-28
2022/07/30 02:56:34;;;;;;;20.48;17.70;;;10.50;99.90;;;;;;5054438;28;20487;-28
2022/07/30 02:59:02;;;;;;;38.63;24.08;;;10.50;99.90;;;;;;5052755;28;20534;-28
2022/07/30 03:01:30;;;;;;;42.25;27.65;;;10.50;99.90;;;;;;5050949;28;20037;-28
2022/07/30 03:03:56;;;;;;;18.92;15.40;;;10.60;99.90;;;;;;5055536;28;20384;-28
2022/07/30 03:06:24;;;;;;;19.02;15.88;;;10.60;99.90;;;;;;5052789;28;20044;-28
2022/07/30 03:08:52;;;;;;;38.28;26.42;;;10.50;99.90;;;;;;5051977;28;20123;-28
2022/07/30 03:11:19;;;;;;;22.35;16.33;;;10.50;99.90;;;;;;5053972;28;20052;-29
2022/07/30 03:13:45;;;;;;;17.83;15.35;;;10.50;99.90;;;;;;5060320;28;20478;-28
2022/07/30 03:16:12;;;;;;;26.70;20.90;;;10.50;99.90;;;;;;5056933;28;20045;-28
2022/07/30 03:18:41;;;;;;;31.38;21.88;;;10.50;99.90;;;;;;5056020;28;20087;-28
2022/07/30 03:21:09;;;;;;;36.15;26.80;;;10.50;99.90;;;;;;5039088;28;20048;-28
2022/07/30 03:23:36;;;;;;;30.17;21.40;;;10.50;99.90;;;;;;5057317;28;20045;-28
2022/07/30 03:26:04;;;;;;;25.23;19.80;;;10.50;99.90;;;;;;5058044;28;20419;-28
2022/07/30 03:28:33;;;;;;;32.72;24.83;;;10.50;99.90;;;;;;5056733;28;20048;-27
2022/07/30 03:30:59;;;;;;;43.92;32.20;;;10.60;99.90;;;;;;5056871;28;20483;-27
2022/07/30 03:33:25;;;;;;;29.17;21.83;;;10.70;99.90;;;;;;5056546;28;20049;-28
2022/07/30 03:35:51;;;;;;;46.35;31.98;;;10.70;99.90;;;;;;5056784;28;20041;-28
2022/07/30 03:38:19;;;;;;;36.42;28.08;;;10.80;99.90;;;;;;5056346;28;20124;-28
2022/07/30 03:40:45;;;;;;;70.25;41.40;;;10.80;99.90;;;;;;5055283;28;20045;-28
2022/07/30 03:43:13;;;;;;;36.28;26.52;;;10.80;99.90;;;;;;5055677;28;20410;-27
2022/07/30 03:45:41;;;;;;;42.13;28.60;;;10.80;99.90;;;;;;5055856;28;20491;-27
2022/07/30 03:48:08;;;;;;;87.50;24.23;;;10.80;99.90;;;;;;5056533;28;20394;-28
2022/07/30 03:50:39;;;;;;;32.47;14.20;;;10.70;99.90;;;;;;5055732;28;20384;-28
2022/07/30 03:53:07;;;;;;;20.40;15.32;;;10.60;99.90;;;;;;5056811;28;20040;-28
2022/07/30 03:55:33;;;;;;;20.70;14.43;;;10.50;99.90;;;;;;5056698;28;20052;-28
2022/07/30 03:58:02;;;;;;;19.48;16.10;;;10.50;99.90;;;;;;5055228;28;20044;-28
2022/07/30 04:00:28;;;;;;;35.92;25.02;;;10.50;99.90;;;;;;5055657;28;20052;-28
2022/07/30 04:02:54;;;;;;;45.83;31.20;;;10.60;99.90;;;;;;5056122;28;20495;-28
2022/07/30 04:05:20;;;;;;;39.15;27.90;;;10.80;99.90;;;;;;5038312;28;20047;-28
2022/07/30 04:07:46;;;;;;;38.75;24.58;;;10.90;99.90;;;;;;5055018;28;20056;-28
2022/07/30 04:10:13;;;;;;;24.77;18.98;;;11.00;1.00;;;;;;5059351;28;20414;-28
2022/07/30 04:12:39;;;;;;;21.10;16.40;;;11.00;99.90;;;;;;5054330;28;20053;-28
2022/07/30 04:15:05;;;;;;;27.90;22.08;;;10.90;99.90;;;;;;5037064;28;20052;-28
2022/07/30 04:17:40;;;;;;;22.55;17.30;;;10.90;99.90;;;;;;5054417;28;20036;-28
2022/07/30 04:20:19;;;;;;;19.17;16.40;;;10.90;99.90;;;;;;5055205;28;20498;-28
2022/07/30 04:22:46;;;;;;;29.92;21.48;;;10.90;99.90;;;;;;5052504;28;20387;-28
2022/07/30 04:25:13;;;;;;;20.70;16.55;;;11.00;99.90;;;;;;5053925;28;20132;-28
2022/07/30 04:27:39;;;;;;;28.88;22.98;;;11.00;99.90;;;;;;5052809;28;20080;-30
2022/07/30 04:30:06;;;;;;;26.98;20.02;;;11.00;99.90;;;;;;5054870;28;20037;-28
2022/07/30 04:32:32;;;;;;;19.13;16.23;;;11.00;99.90;;;;;;5053945;28;20053;-28
2022/07/30 04:34:59;;;;;;;18.45;12.82;;;11.10;1.00;;;;;;5055685;28;20053;-28
2022/07/30 04:37:26;;;;;;;14.93;12.25;;;11.10;1.00;;;;;;5053047;28;20135;-28
2022/07/30 04:39:56;;;;;;;13.45;10.63;;;11.20;1.00;;;;;;5053206;28;20057;-28
2022/07/30 04:42:26;;;;;;;18.77;15.93;;;11.20;1.00;;;;;;5054121;28;20172;-29
2022/07/30 04:44:53;;;;;;;17.38;15.57;;;11.30;1.00;;;;;;5054482;28;20037;-28
2022/07/30 04:47:20;;;;;;;14.27;10.60;;;11.40;1.00;;;;;;5054559;28;20047;-28
2022/07/30 04:49:47;;;;;;;34.28;26.00;;;11.40;1.00;;;;;;5054509;28;20051;-28
2022/07/30 04:52:14;;;;;;;17.23;14.73;;;11.50;1.00;;;;;;5054671;28;20134;-28
2022/07/30 04:54:54;;;;;;;28.77;22.42;;;11.50;1.00;;;;;;5052828;28;20509;-28
2022/07/30 04:57:21;;;;;;;24.98;18.30;;;11.60;1.00;;;;;;5054432;28;20045;-28
2022/07/30 04:59:46;;;;;;;48.00;32.67;;;11.60;1.00;;;;;;5053286;28;20094;-28
2022/07/30 05:02:16;;;;;;;40.22;27.83;;;11.70;1.00;;;;;;5056275;28;20045;-28
2022/07/30 05:04:42;;;;;;;34.42;25.73;;;11.80;1.00;;;;;;5043567;28;20574;-28
2022/07/30 05:07:13;;;;;;;36.80;29.90;;;12.00;1.00;;;;;;5052120;28;20124;-28
2022/07/30 05:09:39;;;;;;;32.65;22.70;;;12.10;1.00;;;;;;5017676;28;1150315;-28
2022/07/30 05:12:05;;;;;;;30.20;21.20;;;12.20;1.00;;;;;;5051150;28;20053;-28
2022/07/30 05:14:31;;;;;;;24.75;19.55;;;12.30;1.00;;;;;;5055296;28;20044;-28
2022/07/30 05:16:56;;;;;;;31.40;23.25;;;12.30;1.00;;;;;;5054865;28;20047;-28
2022/07/30 05:19:22;;;;;;;32.45;26.20;;;12.40;1.00;;;;;;5051992;28;20079;-28
2022/07/30 05:21:48;;;;;;;32.05;26.25;;;12.50;1.00;;;;;;5035221;28;20049;-28
2022/07/30 05:24:14;;;;;;;31.42;24.33;;;12.60;1.00;;;;;;5048422;28;20106;-28
2022/07/30 05:26:40;;;;;;;36.33;27.83;;;12.70;1.00;;;;;;5052255;28;20041;-28
2022/07/30 05:29:06;;;;;;;38.42;27.20;;;12.90;1.00;;;;;;5053433;28;20043;-28
2022/07/30 05:31:31;;;;;;;38.03;27.27;;;13.00;21.40;;;;;;5035610;28;20049;-28
2022/07/30 05:33:58;;;;;;;29.92;20.80;;;13.20;44.50;;;;;;5055664;28;20045;-28
2022/07/30 05:36:24;;;;;;;34.28;28.70;;;13.30;52.50;;;;;;5036279;28;20475;-28
2022/07/30 05:38:49;;;;;;;36.10;28.85;;;13.40;61.40;;;;;;5053249;28;20084;-29
2022/07/30 05:41:15;;;;;;;41.50;32.42;;;13.60;95.10;;;;;;5052698;28;20128;-28
2022/07/30 05:43:41;;;;;;;37.95;27.45;;;14.10;99.90;;;;;;5051830;28;20091;-28
2022/07/30 05:46:07;;;;;;;37.63;29.55;;;14.90;99.90;;;;;;5037304;28;20163;-28
2022/07/30 05:48:34;;;;;;;38.75;29.13;;;15.60;99.90;;;;;;5055116;28;20095;-28
2022/07/30 05:51:01;;;;;;;28.73;24.48;;;16.20;1.00;;;;;;5053441;28;20041;-28
2022/07/30 05:53:26;;;;;;;26.25;21.38;;;16.60;99.90;;;;;;5053817;28;20095;-28
2022/07/30 05:55:52;;;;;;;22.23;18.50;;;16.80;1.00;;;;;;5054527;28;20444;-28
2022/07/30 05:58:18;;;;;;;23.30;20.83;;;16.90;99.90;;;;;;5053691;28;20045;-27
2022/07/30 06:00:44;;;;;;;20.88;17.88;;;17.10;66.30;;;;;;5053389;28;20084;-27
2022/07/30 06:03:09;;;;;;;19.50;16.13;;;17.20;1.00;;;;;;5051604;28;20041;-27
2022/07/30 06:05:35;;;;;;;21.08;17.65;;;17.30;99.90;;;;;;5054397;28;20048;-27
2022/07/30 06:08:01;;;;;;;19.25;14.60;;;17.40;99.90;;;;;;5056763;28;20037;-27
2022/07/30 06:10:27;;;;;;;17.02;15.32;;;17.50;99.90;;;;;;5047312;28;20080;-27
2022/07/30 06:12:52;;;;;;;19.30;14.65;;;17.40;99.90;;;;;;5044148;28;20033;-27
2022/07/30 06:15:18;;;;;;;17.70;14.85;;;17.20;1.00;;;;;;5052589;28;20041;-27
2022/07/30 06:17:45;;;;;;;20.95;16.88;;;16.90;1.00;;;;;;5053023;28;20037;-27
2022/07/30 06:20:13;;;;;;;19.80;15.32;;;17.00;99.90;;;;;;5036762;28;20049;-27
2022/07/30 06:22:38;;;;;;;25.58;14.93;;;17.10;99.90;;;;;;5054241;28;20056;-27
2022/07/30 06:25:08;;;;;;;20.58;13.40;;;17.10;99.90;;;;;;5053952;28;20041;-27
2022/07/30 06:27:35;;;;;;;21.25;14.77;;;17.10;99.90;;;;;;5053956;28;20040;-27
2022/07/30 06:30:02;;;;;;;20.02;15.35;;;17.30;1.00;;;;;;5053281;28;20056;-27
2022/07/30 06:32:28;;;;;;;18.80;13.85;;;17.90;1.00;;;;;;5052382;28;20442;-27
2022/07/30 06:34:53;;;;;;;20.30;16.23;;;18.30;99.90;;;;;;5053834;28;20052;-28
2022/07/30 06:37:19;;;;;;;17.85;13.73;;;18.60;45.60;;;;;;5053330;28;20418;-28
2022/07/30 06:39:45;;;;;;;14.82;12.70;;;18.90;1.00;;;;;;5053365;28;20095;-27
2022/07/30 06:42:11;;;;;;;18.92;12.43;;;19.20;1.00;;;;;;5051289;28;20128;-27
2022/07/30 06:44:36;;;;;;;17.48;13.48;;;19.30;99.90;;;;;;5051796;28;20048;-28
2022/07/30 06:47:02;;;;;;;20.67;13.05;;;19.40;99.90;;;;;;5043163;28;20053;-27
2022/07/30 06:49:30;;;;;;;19.02;12.02;;;19.60;99.90;;;;;;5045923;28;20047;-27
2022/07/30 06:51:56;;;;;;;15.85;11.20;;;19.70;99.90;;;;;;5061517;28;20045;-27
2022/07/30 06:54:22;;;;;;;20.10;11.35;;;19.80;99.90;;;;;;5053588;28;20052;-27
2022/07/30 06:56:47;;;;;;;13.55;11.40;;;20.10;99.90;;;;;;5052797;28;20048;-28
2022/07/30 06:59:13;;;;;;;12.93;10.30;;;20.20;99.90;;;;;;5053555;28;20120;-28
2022/07/30 07:01:39;;;;;;;15.52;10.35;;;20.40;99.90;;;;;;5054017;28;20045;-28
2022/07/30 07:04:05;;;;;;;14.98;9.70;;;20.50;99.90;;;;;;5051935;28;20521;-27
2022/07/30 07:06:31;;;;;;;16.98;9.25;;;20.70;97.70;;;;;;5053451;28;20045;-28
2022/07/30 07:08:57;;;;;;;15.43;8.18;;;20.70;26.20;;;;;;5053028;28;20113;-28
2022/07/30 07:11:26;;;;;;;12.70;8.38;;;20.60;3.80;;;;;;5053392;28;20133;-28
2022/07/30 07:13:52;;;;;;;13.27;7.80;;;20.70;99.90;;;;;;5052576;28;20434;-28
2022/07/30 07:16:23;;;;;;;12.00;8.18;;;20.70;99.90;;;;;;5053987;28;20049;-28
2022/07/30 07:18:52;;;;;;;16.20;7.70;;;20.70;48.80;;;;;;5054235;28;20088;-28
2022/07/30 07:21:19;;;;;;;12.23;7.82;;;20.80;25.50;;;;;;5053340;28;20045;-27
2022/07/30 07:23:47;;;;;;;11.52;7.40;;;20.90;96.20;;;;;;5053812;28;20045;-27
2022/07/30 07:26:13;;;;;;;12.02;7.53;;;20.90;89.00;;;;;;5053271;28;20127;-27
2022/07/30 07:28:39;;;;;;;16.33;6.88;;;20.60;18.00;;;;;;5052442;28;20045;-27
2022/07/30 07:31:06;;;;;;;12.95;7.10;;;20.70;99.90;;;;;;5053213;28;20037;-28
2022/07/30 07:33:32;;;;;;;11.85;6.95;;;20.70;43.10;;;;;;5053230;28;20049;-28
2022/07/30 07:35:57;;;;;;;14.50;7.30;;;20.50;1.00;;;;;;5053211;28;20540;-28
2022/07/30 07:38:23;;;;;;;14.82;7.70;;;20.40;99.90;;;;;;5053198;28;20475;-28
2022/07/30 07:40:49;;;;;;;13.25;6.68;;;20.50;93.80;;;;;;5051046;28;20128;-29
2022/07/30 07:43:14;;;;;;;13.25;7.47;;;20.80;89.60;;;;;;5033707;28;20049;-28
2022/07/30 07:45:41;;;;;;;10.38;7.07;;;20.70;1.00;;;;;;5052081;28;20049;-28
2022/07/30 07:48:10;;;;;;;10.73;6.07;;;20.80;99.90;;;;;;5052477;28;20060;-28
2022/07/30 07:50:36;;;;;;;15.43;7.38;;;20.60;1.00;;;;;;5051928;28;20049;-28
2022/07/30 07:53:05;;;;;;;9.93;6.55;;;20.60;1.00;;;;;;5048781;28;20092;-28
2022/07/30 07:55:31;;;;;;;14.07;6.72;;;20.70;1.00;;;;;;5052647;28;20383;-28
2022/07/30 07:57:56;;;;;;;10.45;5.80;;;20.70;1.00;;;;;;5054378;28;20394;-28
2022/07/30 08:00:23;;;;;;;11.68;5.90;;;20.60;1.00;;;;;;5056675;28;20049;-28
2022/07/30 08:02:48;;;;;;;11.60;6.22;;;20.60;1.00;;;;;;5054851;28;20095;-28
2022/07/30 08:05:15;;;;;;;11.25;5.30;;;21.00;1.00;;;;;;5055724;28;20118;-28
2022/07/30 08:07:42;;;;;;;11.35;5.43;;;20.90;99.90;;;;;;5056513;28;20049;-27
2022/07/30 08:10:09;;;;;;;9.30;4.97;;;20.60;99.90;;;;;;5057020;28;20057;-29
2022/07/30 08:12:36;;;;;;;11.30;4.93;;;20.80;99.90;;;;;;5056722;28;20124;-28
2022/07/30 08:15:03;;;;;;;10.93;4.88;;;20.50;99.90;;;;;;5052864;28;20060;-28
2022/07/30 08:17:38;;;;;;;9.40;4.82;;;20.20;99.90;;;;;;5067377;28;20127;-28
2022/07/30 08:20:04;;;;;;;10.80;4.45;;;20.60;99.90;;;;;;5051896;28;20122;-28
2022/07/30 08:22:32;;;;;;;6.93;4.85;;;20.90;99.90;;;;;;5052386;28;20120;-28
2022/07/30 08:24:58;;;;;;;7.18;4.47;;;21.40;99.90;;;;;;5056191;28;20060;-28
2022/07/30 08:27:23;;;;;;;10.13;4.57;;;21.40;1.00;;;;;;5056091;28;20406;-28
2022/07/30 08:29:49;;;;;;;7.35;3.92;;;21.10;2.60;;;;;;5055729;28;20049;-28
2022/07/30 08:32:15;;;;;;;6.22;3.33;;;20.90;1.00;;;;;;5054890;28;20059;-28
2022/07/30 08:34:43;;;;;;;9.63;3.08;;;21.10;1.00;;;;;;5054479;28;20045;-28
2022/07/30 08:37:11;;;;;;;18.15;5.00;;;21.50;1.00;;;;;;5055278;28;20048;-28
2022/07/30 08:39:37;;;;;;;12.38;4.63;;;22.00;1.00;;;;;;5055919;28;20052;-28
2022/07/30 08:42:03;;;;;;;11.10;4.63;;;22.10;99.90;;;;;;5054666;28;20052;-28
2022/07/30 08:44:31;;;;;;;9.00;3.97;;;21.90;99.90;;;;;;5038268;28;20052;-28
2022/07/30 08:46:58;;;;;;;10.27;3.80;;;21.40;99.90;;;;;;5054777;28;20513;-28
2022/07/30 08:49:25;;;;;;;10.98;3.30;;;21.80;1.00;;;;;;5056312;28;20055;-28
2022/07/30 08:51:50;;;;;;;10.25;4.30;;;22.30;1.00;;;;;;5056244;28;20391;-28
2022/07/30 08:54:24;;;;;;;7.07;3.55;;;22.50;99.90;;;;;;5053730;28;20037;-28
2022/07/30 08:56:53;;;;;;;10.48;3.75;;;22.70;99.90;;;;;;5055172;28;20102;-28
2022/07/30 08:59:22;;;;;;;10.55;4.25;;;22.80;99.90;;;;;;5062315;28;20055;-28
2022/07/30 09:01:48;;;;;;;5.60;3.35;;;22.50;89.30;;;;;;5056100;28;20049;-28
2022/07/30 09:04:14;;;;;;;7.70;3.70;;;22.30;99.90;;;;;;5055425;28;20394;-29
2022/07/30 09:06:40;;;;;;;7.88;3.20;;;21.80;99.90;;;;;;5055482;28;20051;-28
2022/07/30 09:09:06;;;;;;;8.52;3.45;;;21.80;99.90;;;;;;5053856;28;20068;-29
2022/07/30 09:11:34;;;;;;;7.65;3.60;;;21.90;99.90;;;;;;5054730;28;20214;-28
2022/07/30 09:14:11;;;;;;;10.38;3.42;;;22.40;99.90;;;;;;5055592;28;20179;-28
2022/07/30 09:16:38;;;;;;;9.40;2.97;;;22.80;1.00;;;;;;5055204;28;20509;-28
2022/07/30 09:19:11;;;;;;;10.77;3.17;;;22.20;99.90;;;;;;5038111;28;20048;-28
2022/07/30 09:21:37;;;;;;;12.52;3.45;;;22.30;99.90;;;;;;5037412;28;20055;-28
2022/07/30 09:24:09;;;;;;;5.45;2.75;;;22.70;53.90;;;;;;5053841;28;20037;-28
2022/07/30 09:26:58;;;;;;;8.90;2.78;;;23.20;1.00;;;;;;5055032;28;20482;-28
2022/07/30 09:29:26;;;;;;;7.35;2.88;;;23.40;99.90;;;;;;5040023;28;20547;-28
2022/07/30 09:31:56;;;;;;;11.30;3.13;;;23.60;99.90;;;;;;5054077;28;20056;-28
2022/07/30 09:34:27;;;;;;;11.05;3.08;;;23.80;76.90;;;;;;5055104;28;20400;-28
2022/07/30 09:36:53;;;;;;;11.48;3.17;;;24.00;75.20;;;;;;5055199;28;20048;-28
2022/07/30 09:39:28;;;;;;;5.28;3.15;;;24.00;1.00;;;;;;5053765;28;20049;-28
2022/07/30 09:41:55;;;;;;;8.70;4.05;;;24.10;99.90;;;;;;5055310;28;20051;-28
2022/07/30 09:44:25;;;;;;;26.05;4.72;;;24.30;99.90;;;;;;5054617;28;20044;-30
2022/07/30 09:46:52;;;;;;;7.55;3.28;;;24.70;99.90;;;;;;5037335;28;20126;-29
2022/07/30 09:49:20;;;;;;;11.15;3.30;;;24.70;1.00;;;;;;5052538;28;20479;-28
2022/07/30 09:51:47;;;;;;;6.82;2.55;;;25.00;1.00;;;;;;5055847;28;20506;-29
2022/07/30 09:54:13;;;;;;;7.35;2.80;;;25.00;99.90;;;;;;5057301;28;20096;-29
2022/07/30 09:56:47;;;;;;;6.22;2.40;;;25.30;99.90;;;;;;5044732;28;20085;-29
2022/07/30 09:59:26;;;;;;;10.93;3.15;;;25.20;99.90;;;;;;5040257;28;20049;-29
2022/07/30 10:01:54;;;;;;;4.75;2.92;;;25.30;65.20;;;;;;5043689;28;20522;-29
2022/07/30 10:04:28;;;;;;;9.27;3.22;;;25.10;99.90;;;;;;5033555;28;20038;-29
2022/07/30 10:06:55;;;;;;;9.30;2.78;;;25.00;99.90;;;;;;5046283;28;20045;-28
2022/07/30 10:09:35;;;;;;;5.82;2.67;;;24.90;99.90;;;;;;5054022;28;20083;-29
2022/07/30 10:12:05;;;;;;;7.10;2.80;;;24.50;99.90;;;;;;5053275;28;20060;-28
2022/07/30 10:14:36;;;;;;;8.65;3.20;;;24.50;99.90;;;;;;5019532;28;20056;-29
2022/07/30 10:17:03;;;;;;;10.02;2.67;;;24.70;99.90;;;;;;5053744;28;20064;-28
2022/07/30 10:19:30;;;;;;;7.47;2.55;;;24.70;99.90;;;;;;5052578;28;20132;-29
2022/07/30 10:21:56;;;;;;;12.60;3.35;;;24.70;99.90;;;;;;5052878;28;20410;-28
2022/07/30 10:24:25;;;;;;;9.55;2.85;;;24.30;99.90;;;;;;5053884;28;20041;-29
2022/07/30 10:26:53;;;;;;;6.40;2.30;;;24.30;99.90;;;;;;5052394;28;20509;-28
2022/07/30 10:29:20;;;;;;;8.25;2.60;;;24.10;99.90;;;;;;5051868;28;20053;-30
2022/07/30 10:31:48;;;;;;;6.53;2.65;;;23.80;1.00;;;;;;5053868;28;20102;-29
2022/07/30 10:34:17;;;;;;;6.45;3.13;;;23.70;1.00;;;;;;5053819;28;20044;-29
2022/07/30 10:36:47;;;;;;;8.77;3.17;;;24.10;1.00;;;;;;5053808;28;20052;-28
2022/07/30 10:39:17;;;;;;;8.48;2.67;;;24.80;1.00;;;;;;5051720;28;20056;-29
2022/07/30 10:42:10;;;;;;;7.55;2.60;;;25.20;99.90;;;;;;5054597;28;20048;-29
2022/07/30 10:45:01;;;;;;;7.90;2.45;;;24.90;65.20;;;;;;5054225;28;20084;-29
2022/07/30 10:47:28;;;;;;;8.13;2.45;;;24.70;99.90;;;;;;5060303;28;20041;-28
2022/07/30 10:50:16;;;;;;;8.65;3.08;;;24.50;99.90;;;;;;5054523;28;20040;-28
2022/07/30 10:52:57;;;;;;;7.80;3.17;;;23.80;99.90;;;;;;5037114;28;20634;-29
2022/07/30 10:55:32;;;;;;;6.85;2.63;;;23.60;99.90;;;;;;5064616;28;20041;-28
2022/07/30 10:57:59;;;;;;;11.18;3.03;;;24.20;99.90;;;;;;5054417;28;20131;-29
2022/07/30 11:00:25;;;;;;;4.97;2.40;;;24.40;99.90;;;;;;5053122;28;20482;-29
2022/07/30 11:03:27;;;;;;;5.97;2.72;;;24.00;99.90;;;;;;5053474;28;20063;-29
2022/07/30 11:06:14;;;;;;;5.68;2.00;;;23.60;99.90;;;;;;5011834;28;20056;-28
2022/07/30 11:08:42;;;;;;;5.40;1.98;;;24.40;99.90;;;;;;5052171;28;20359;-28
2022/07/30 11:11:19;;;;;;;5.03;2.05;;;24.20;1.00;;;;;;5059352;28;20447;-28
2022/07/30 11:13:54;;;;;;;9.20;2.13;;;24.90;1.00;;;;;;5032604;28;20052;-29
2022/07/30 11:16:22;;;;;;;4.95;1.98;;;25.70;99.90;;;;;;5041951;28;20128;-29
2022/07/30 11:19:08;;;;;;;8.50;2.10;;;26.40;99.90;;;;;;5053614;28;20049;-29
2022/07/30 11:21:34;;;;;;;6.85;2.10;;;26.60;99.90;;;;;;5053592;28;20098;-28
2022/07/30 11:24:01;;;;;;;4.72;1.80;;;26.80;99.90;;;;;;5053786;28;20041;-29
2022/07/30 11:26:38;;;;;;;7.40;1.85;;;27.10;99.90;;;;;;5052537;28;20045;-29
2022/07/30 11:29:35;;;;;;;8.82;2.20;;;26.00;99.90;;;;;;5046982;28;20048;-29
2022/07/30 11:32:27;;;;;;;8.50;2.72;;;24.70;1.00;;;;;;5052681;28;20065;-29
2022/07/30 11:35:20;;;;;;;7.35;2.40;;;24.80;1.00;;;;;;5038155;28;20080;-29
2022/07/30 11:38:01;;;;;;;5.03;1.88;;;24.50;1.00;;;;;;5046991;28;20083;-29
2022/07/30 11:40:50;;;;;;;5.78;1.92;;;25.00;1.00;;;;;;5057087;28;20399;-29
2022/07/30 11:43:31;;;;;;;9.55;1.63;;;25.20;99.90;;;;;;5051173;28;20056;-29
2022/07/30 11:46:12;;;;;;;8.35;2.30;;;25.80;99.90;;;;;;5055556;28;20071;-29
2022/07/30 11:48:53;;;;;;;6.88;2.08;;;26.10;99.90;;;;;;5044621;28;20044;-29
2022/07/30 11:51:20;;;;;;;5.20;2.08;;;25.80;99.90;;;;;;5053838;28;20051;-28
2022/07/30 11:54:02;;;;;;;6.57;2.50;;;25.30;99.90;;;;;;5053071;28;20049;-29
2022/07/30 11:56:28;;;;;;;5.80;2.17;;;25.20;99.90;;;;;;5058020;28;20121;-29
2022/07/30 11:59:07;;;;;;;8.23;2.30;;;25.10;1.00;;;;;;5056710;28;20090;-29
2022/07/30 12:01:34;;;;;;;4.88;2.00;;;25.10;99.90;;;;;;5055652;28;20084;-29
2022/07/30 12:04:08;;;;;;;7.82;1.98;;;24.90;99.90;;;;;;5056726;28;20044;-28
2022/07/30 12:06:47;;;;;;;8.40;2.63;;;25.10;99.90;;;;;;5055676;28;20053;-28
2022/07/30 12:09:27;;;;;;;6.20;2.60;;;25.10;1.00;;;;;;5055047;28;20068;-29
2022/07/30 12:11:54;;;;;;;4.78;2.42;;;24.70;1.00;;;;;;5056296;28;20053;-28
2022/07/30 12:14:20;;;;;;;7.07;2.20;;;24.80;1.00;;;;;;5056987;28;20088;-28
2022/07/30 12:16:50;;;;;;;6.20;2.15;;;25.20;1.00;;;;;;5054456;28;20049;-28
2022/07/30 12:19:16;;;;;;;8.00;2.47;;;25.20;1.00;;;;;;5053968;28;20182;-28
2022/07/30 12:21:42;;;;;;;6.45;2.80;;;24.50;1.00;;;;;;5054817;28;20136;-28
2022/07/30 12:24:09;;;;;;;8.13;2.38;;;24.20;1.00;;;;;;5055470;28;20120;-29
2022/07/30 12:26:35;;;;;;;6.70;2.20;;;24.10;1.00;;;;;;5053752;28;20081;-29
2022/07/30 12:29:04;;;;;;;5.70;2.10;;;24.50;1.00;;;;;;5056386;28;20572;-28
2022/07/30 12:31:30;;;;;;;3.92;1.88;;;24.90;1.00;;;;;;5055369;28;20037;-28
2022/07/30 12:33:55;;;;;;;7.20;2.10;;;24.90;99.90;;;;;;5055408;28;20049;-28
2022/07/30 12:36:28;;;;;;;7.10;2.00;;;24.80;99.90;;;;;;5056019;28;20395;-29
2022/07/30 12:38:55;;;;;;;7.13;2.05;;;24.90;99.90;;;;;;5056171;28;20182;-29
2022/07/30 12:41:21;;;;;;;4.45;1.38;;;25.30;99.90;;;;;;5055988;28;20052;-28
2022/07/30 12:43:52;;;;;;;5.88;1.80;;;25.40;99.90;;;;;;5054904;28;20051;-29
2022/07/30 12:46:24;;;;;;;7.18;1.77;;;25.30;99.90;;;;;;5054158;28;20053;-28
2022/07/30 12:48:50;;;;;;;5.57;2.40;;;25.30;99.90;;;;;;5055175;28;20051;-29
2022/07/30 12:51:15;;;;;;;6.45;1.77;;;25.10;99.90;;;;;;5054029;28;20053;-31